This is the latest recevied weather packets stored in our database for station/object K5NOC-12. If no packets are shown the sender has not sent any weather packets the latest 10 day(s).
| Time | Temp. | Humidity | Pressure | Rain* | Wind** | Luminosity | Snow |
|---|---|---|---|---|---|---|---|
| 1787773703 | 32.78° C | 34% | 1022.9 hPa | 0 mm | - | - | - |
| 1787772803 | 32.22° C | 36% | 1023.2 hPa | 0 mm | - | - | - |
| 1787771903 | 31.67° C | 39% | 1023.6 hPa | 0 mm | - | - | - |
| 1787771002 | 30.56° C | 42% | 1023.8 hPa | 0 mm | - | - | - |
| 1787770102 | 30.56° C | 42% | 1023.9 hPa | 0 mm | - | - | - |
| 1787769202 | 30.56° C | 44% | 1024 hPa | 0 mm | - | - | - |
| 1787768302 | 30° C | 45% | 1024.2 hPa | 0 mm | - | - | - |
| 1787767402 | 30.56° C | 45% | 1024.4 hPa | 0 mm | - | - | - |
| 1787766502 | 30.56° C | 45% | 1024.6 hPa | 0 mm | - | - | - |
| 1787765602 | 30° C | 46% | 1024.8 hPa | 0 mm | - | - | - |
| 1787764701 | 29.44° C | 47% | 1024.9 hPa | 0 mm | - | - | - |
| 1787763801 | 28.89° C | 49% | 1025.1 hPa | 0 mm | - | - | - |
| 1787762901 | 28.89° C | 51% | 1025.2 hPa | 0 mm | - | - | - |
| 1787762001 | 28.33° C | 52% | 1025.2 hPa | 0 mm | - | - | - |
| 1787761101 | 27.22° C | 55% | 1025.1 hPa | 0 mm | - | - | - |
| 1787760201 | 26.67° C | 56% | 1025.2 hPa | 0 mm | - | - | - |
| 1787759300 | 26.11° C | 58% | 1025.2 hPa | 0 mm | - | - | - |
| 1787758400 | 25.56° C | 62% | 1025.1 hPa | 0 mm | - | - | - |
| 1787757500 | 23.89° C | 67% | 1025.1 hPa | 0 mm | - | - | - |
| 1787756600 | 23.33° C | 68% | 1025 hPa | 0 mm | - | - | - |
| 1787755700 | 22.78° C | 72% | 1024.9 hPa | 0 mm | - | - | - |
| 1787754800 | 22.22° C | 73% | 1024.9 hPa | 0 mm | - | - | - |
| 1787753900 | 22.22° C | 76% | 1024.8 hPa | 0 mm | - | - | - |
| 1787752999 | 21.67° C | 75% | 1024.5 hPa | 0 mm | - | - | - |
| 1787752099 | 21.67° C | 74% | 1024.3 hPa | 0 mm | - | - | - |
* Rain latest hour (hover to see other rain measurements)
** Current wind speed in m/s (hover to see current wind gust speed)